Time;durP1;ratioP1;P1;durP2;ratioP2;P2;SDS_P1;SDS_P2;PMS_P1;PMS_P2;Temp;Humidity;BMP_temperature;BMP_pressure;BME280_temperature;BME280_humidity;BME280_pressure;Samples;Min_cycle;Max_cycle;Signal;HPM_P1;HPM_P2
2022/02/11 00:02:03;;;;;;;;;;;2.00;99.90;;;;;;4911771;29;20043;-80
2022/02/11 00:04:56;;;;;;;20.67;10.93;;;2.00;99.90;;;;;;4910373;29;19971;-79
2022/02/11 00:07:20;;;;;;;22.25;10.35;;;2.00;99.90;;;;;;4911418;29;20033;-79
2022/02/11 00:09:46;;;;;;;;;;;2.00;99.90;;;;;;4913152;29;20060;-80
2022/02/11 00:12:12;;;;;;;21.00;12.02;;;2.00;99.90;;;;;;4898262;29;19911;-80
2022/02/11 00:14:53;;;;;;;;;;;2.00;99.90;;;;;;4914232;29;20025;-80
2022/02/11 00:17:19;;;;;;;21.75;10.63;;;2.00;99.90;;;;;;4916015;29;20002;-80
2022/02/11 00:19:45;;;;;;;;;;;2.00;99.90;;;;;;4899863;29;20048;-80
2022/02/11 00:22:11;;;;;;;21.75;11.32;;;1.90;99.90;;;;;;4899083;29;20204;-80
2022/02/11 00:24:37;;;;;;;22.75;12.00;;;1.90;99.90;;;;;;4905828;29;20028;-78
2022/02/11 00:32:27;;;;;;;37.78;18.85;;;1.90;99.90;;;;;;4896000;29;20033;-78
2022/02/11 00:35:00;;;;;;;35.80;17.27;;;2.00;99.90;;;;;;4878801;29;20034;-78
2022/02/11 00:37:26;;;;;;;34.40;17.83;;;2.20;99.90;;;;;;4895849;29;20163;-77
2022/02/11 00:40:23;;;;;;;38.92;19.90;;;2.10;99.90;;;;;;4896005;29;20342;-78
2022/02/11 00:46:04;;;;;;;50.10;26.88;;;2.00;99.90;;;;;;4865624;29;20041;-80
2022/02/11 01:02:16;;;;;;;;;;;;;;;;;;;;;
2022/02/11 01:04:36;;;;;;;33.55;17.25;;;1.80;99.90;;;;;;4921759;29;20037;-81
2022/02/11 01:07:01;;;;;;;;;;;1.80;99.90;;;;;;4905640;29;20047;-80
2022/02/11 01:09:27;;;;;;;44.15;22.48;;;1.70;99.90;;;;;;4922200;29;19940;-80
2022/02/11 01:11:56;;;;;;;;;;;1.60;99.90;;;;;;4906157;29;20029;-81
2022/02/11 01:14:41;;;;;;;39.92;21.23;;;1.70;99.90;;;;;;4906702;29;19912;-81
2022/02/11 01:17:15;;;;;;;45.60;21.42;;;1.70;99.90;;;;;;4906848;29;20028;-82
2022/02/11 01:20:06;;;;;;;38.40;21.50;;;1.70;99.90;;;;;;4923510;29;20029;-82
2022/02/11 01:54:35;;;;;;;30.00;14.75;;;1.50;99.90;;;;;;4901812;29;20040;-79
2022/02/11 01:57:15;;;;;;;32.57;16.07;;;1.30;99.90;;;;;;4902465;29;20041;-78
2022/02/11 02:23:28;;;;;;;34.05;19.15;;;0.90;99.90;;;;;;4901306;29;20405;-79
2022/02/11 02:26:08;;;;;;;26.02;15.48;;;0.90;99.90;;;;;;4884236;29;20490;-78
2022/02/11 02:50:24;;;;;;;35.80;17.55;;;0.90;99.90;;;;;;4896454;29;20127;-78
2022/02/11 02:58:31;;;;;;;35.50;17.77;;;0.70;99.90;;;;;;4895373;29;20455;-78
2022/02/11 03:49:42;;;;;;;33.35;16.83;;;0.60;99.90;;;;;;4899527;29;20397;-79
2022/02/11 04:55:13;;;;;;;31.67;15.25;;;0.90;99.90;;;;;;4914882;29;20020;-79
2022/02/11 05:00:23;;;;;;;60.85;24.15;;;0.70;99.90;;;;;;4905200;29;20083;-80
2022/02/11 05:02:50;;;;;;;;;;;0.80;99.90;;;;;;4902635;29;20029;-79
2022/02/11 05:05:16;;;;;;;45.25;20.77;;;0.80;99.90;;;;;;4884557;29;20300;-79
2022/02/11 05:07:43;;;;;;;51.35;21.48;;;0.80;99.90;;;;;;4911825;29;20033;-81
2022/02/11 05:10:10;;;;;;;52.42;20.95;;;0.90;99.90;;;;;;4894209;29;20028;-80
2022/02/11 05:12:36;;;;;;;72.13;30.17;;;1.00;99.90;;;;;;4894133;29;20055;-80
2022/02/11 05:15:08;;;;;;;;;;;1.00;99.90;;;;;;4894057;29;20450;-79
2022/02/11 05:17:37;;;;;;;50.20;24.30;;;1.10;99.90;;;;;;4910201;29;19942;-80
2022/02/11 05:20:05;;;;;;;27.75;11.82;;;1.00;99.90;;;;;;4910344;29;20096;-80
2022/02/11 05:22:31;;;;;;;20.45;10.63;;;1.00;99.90;;;;;;4894554;29;20036;-80
2022/02/11 05:24:56;;;;;;;;;;;1.00;99.90;;;;;;4894414;29;20028;-80
2022/02/11 05:27:22;;;;;;;24.50;13.40;;;0.90;99.90;;;;;;4917551;29;19996;-80
2022/02/11 05:29:47;;;;;;;;;;;0.90;99.90;;;;;;4900371;29;20029;-81
2022/02/11 05:32:14;;;;;;;54.92;25.15;;;0.80;99.90;;;;;;4917443;29;19907;-81
2022/02/11 05:34:39;;;;;;;50.13;23.73;;;0.80;99.90;;;;;;4901156;29;20067;-80
2022/02/11 05:37:05;;;;;;;;;;;0.70;99.90;;;;;;4915224;29;20033;-80
2022/02/11 05:39:30;;;;;;;47.60;22.95;;;0.70;99.90;;;;;;4902085;29;20040;-79
2022/02/11 05:41:56;;;;;;;;;;;0.60;99.90;;;;;;4899130;29;20147;-79
2022/02/11 05:44:22;;;;;;;39.42;20.60;;;0.60;99.90;;;;;;4907528;29;19907;-80
2022/02/11 05:46:47;;;;;;;;;;;0.60;99.90;;;;;;4909446;29;20032;-80
2022/02/11 05:49:13;;;;;;;41.28;16.33;;;0.50;99.90;;;;;;4909008;29;19955;-80
2022/02/11 05:51:38;;;;;;;;;;;0.50;99.90;;;;;;4904489;29;20031;-80
2022/02/11 05:54:04;;;;;;;36.00;18.75;;;0.60;99.90;;;;;;4904923;29;20356;-79
2022/02/11 05:56:29;;;;;;;;;;;0.60;99.90;;;;;;4885279;29;20103;-78
2022/02/11 05:58:55;;;;;;;54.80;25.17;;;0.70;99.90;;;;;;4884549;29;19911;-78
2022/02/11 06:01:20;;;;;;;;;;;0.70;99.90;;;;;;4899201;29;20052;-79
2022/02/11 06:03:46;;;;;;;59.03;27.40;;;0.70;99.90;;;;;;4903766;29;19907;-79
2022/02/11 06:06:12;;;;;;;;;;;0.80;99.90;;;;;;4895028;29;20098;-79
2022/02/11 06:08:38;;;;;;;58.47;27.13;;;0.80;99.90;;;;;;4912018;29;19908;-80
2022/02/11 06:11:05;;;;;;;;;;;0.90;99.90;;;;;;4895058;29;20082;-80
2022/02/11 06:13:30;;;;;;;42.00;19.95;;;0.90;99.90;;;;;;4914446;29;19984;-80
2022/02/11 06:15:56;;;;;;;48.50;23.33;;;1.00;99.90;;;;;;4900786;29;20048;-81
2022/02/11 06:18:22;;;;;;;;;;;1.10;99.90;;;;;;4919002;29;20028;-79
2022/02/11 06:20:48;;;;;;;55.42;24.80;;;1.10;99.90;;;;;;4902161;29;19911;-80
2022/02/11 06:23:13;;;;;;;;;;;1.30;99.90;;;;;;4918091;29;20013;-79
2022/02/11 06:25:40;;;;;;;77.97;30.92;;;1.20;99.90;;;;;;4918819;29;20360;-81
2022/02/11 06:28:05;;;;;;;81.25;32.35;;;1.30;99.90;;;;;;4901531;29;20052;-81
2022/02/11 06:30:31;;;;;;;;;;;1.40;99.90;;;;;;4901879;29;20025;-80
2022/02/11 06:32:56;;;;;;;92.13;40.42;;;1.50;99.90;;;;;;4918922;29;19891;-81
2022/02/11 06:35:22;;;;;;;;;;;1.50;99.90;;;;;;4903479;29;20031;-79
2022/02/11 06:37:50;;;;;;;84.53;38.05;;;1.50;99.90;;;;;;4918345;29;19912;-79
2022/02/11 06:40:16;;;;;;;44.65;21.00;;;1.60;99.90;;;;;;4894855;29;20657;-79
2022/02/11 06:42:42;;;;;;;;;;;1.70;99.90;;;;;;4887353;29;20043;-79
2022/02/11 06:45:09;;;;;;;30.05;15.68;;;1.80;99.90;;;;;;4888102;29;19911;-79
2022/02/11 06:47:34;;;;;;;26.42;15.27;;;1.90;99.90;;;;;;4901885;29;20040;-79
2022/02/11 06:50:00;;;;;;;;;;;2.20;99.90;;;;;;4913246;29;20076;-80
2022/02/11 06:52:26;;;;;;;68.85;32.42;;;2.50;99.90;;;;;;4908805;29;19911;-79
2022/02/11 06:54:51;;;;;;;65.95;31.33;;;3.00;99.90;;;;;;4908484;29;20110;-80
2022/02/11 06:57:18;;;;;;;;;;;3.50;99.90;;;;;;4894307;29;20028;-80
2022/02/11 06:59:43;;;;;;;35.72;18.25;;;4.00;99.90;;;;;;4914040;29;19947;-80
2022/02/11 07:02:16;;;;;;;;;;;4.40;99.90;;;;;;4907318;29;20044;-79
2022/02/11 07:04:42;;;;;;;30.67;14.48;;;4.90;99.90;;;;;;4916923;29;19915;-80
2022/02/11 07:07:07;;;;;;;;;;;5.40;99.90;;;;;;4901998;29;20406;-80
2022/02/11 07:09:33;;;;;;;53.05;25.95;;;5.90;99.90;;;;;;4902563;29;19915;-79
2022/02/11 07:11:59;;;;;;;93.13;43.13;;;6.30;99.90;;;;;;4900443;29;20032;-79
2022/02/11 07:14:24;;;;;;;;;;;6.70;99.90;;;;;;4915570;29;20033;-80
2022/02/11 07:16:50;;;;;;;84.53;41.75;;;6.90;99.90;;;;;;4899846;29;19918;-80
2022/02/11 07:19:16;;;;;;;84.18;41.78;;;7.20;99.90;;;;;;4911900;29;20031;-79
2022/02/11 07:21:41;;;;;;;;;;;7.40;99.90;;;;;;4899969;29;20092;-80
2022/02/11 07:24:08;;;;;;;85.60;45.25;;;7.60;99.90;;;;;;4897457;29;19990;-80
2022/02/11 07:26:34;;;;;;;99.45;50.42;;;7.80;99.90;;;;;;4893003;29;20047;-80
2022/02/11 07:28:59;;;;;;;;;;;8.00;99.90;;;;;;4889718;29;20192;-80
2022/02/11 07:31:25;;;;;;;95.82;48.97;;;8.10;99.90;;;;;;4881224;29;19911;-79
2022/02/11 07:33:50;;;;;;;;;;;8.30;99.90;;;;;;4889753;29;20489;-83
2022/02/11 07:36:16;;;;;;;72.57;35.47;;;8.50;99.90;;;;;;4892965;29;19918;-84
2022/02/11 07:38:42;;;;;;;50.47;27.20;;;8.90;99.90;;;;;;4876280;29;20457;-82
2022/02/11 07:41:07;;;;;;;;;;;9.30;99.90;;;;;;4877745;29;20067;-84
2022/02/11 07:43:33;;;;;;;18.67;8.82;;;9.80;99.90;;;;;;4877269;29;19911;-86
2022/02/11 07:45:58;;;;;;;;;;;10.20;99.90;;;;;;4877276;29;20033;-87
2022/02/11 07:48:24;;;;;;;45.53;22.95;;;10.50;99.90;;;;;;4877012;29;19911;-82
2022/02/11 07:50:51;;;;;;;;;;;10.90;99.90;;;;;;4876238;29;20518;-85
2022/02/11 07:53:18;;;;;;;70.60;29.10;;;11.20;98.50;;;;;;4875352;29;19957;-83
2022/02/11 07:55:44;;;;;;;74.78;25.98;;;11.40;98.40;;;;;;4874979;29;20276;-82
2022/02/11 07:58:10;;;;;;;56.30;20.25;;;11.60;95.10;;;;;;4890927;29;20103;-83
2022/02/11 08:00:36;;;;;;;83.03;21.65;;;11.60;95.10;;;;;;4874530;29;20037;-82
2022/02/11 08:03:02;;;;;;;;;;;11.60;95.10;;;;;;4875314;29;20043;-86
2022/02/11 08:05:27;;;;;;;53.75;17.02;;;11.50;93.50;;;;;;4873757;29;19912;-83
2022/02/11 08:07:53;;;;;;;;;;;11.60;94.60;;;;;;4875187;29;20028;-81
2022/02/11 08:10:18;;;;;;;73.85;16.75;;;11.80;91.00;;;;;;4891838;29;19919;-80
2022/02/11 08:12:44;;;;;;;;;;;12.00;92.50;;;;;;4891792;29;20029;-83
2022/02/11 08:15:10;;;;;;;71.82;16.90;;;12.10;85.70;;;;;;4892138;29;19912;-82
2022/02/11 08:17:36;;;;;;;;;;;12.20;86.40;;;;;;4875436;29;20557;-85
2022/02/11 08:20:03;;;;;;;65.47;22.60;;;12.50;79.30;;;;;;4874398;29;19920;-79
2022/02/11 08:22:28;;;;;;;70.95;23.10;;;12.80;80.70;;;;;;4890918;29;20029;-80
2022/02/11 08:24:54;;;;;;;;;;;13.10;77.90;;;;;;4891880;29;20035;-80
2022/02/11 08:27:20;;;;;;;43.65;13.57;;;13.50;70.60;;;;;;4874291;29;20263;-80
2022/02/11 08:29:46;;;;;;;;;;;13.90;71.50;;;;;;4891715;29;20021;-82
2022/02/11 08:32:12;;;;;;;14.82;5.65;;;14.20;66.80;;;;;;4890745;29;19911;-82
2022/02/11 08:34:39;;;;;;;8.23;4.65;;;14.70;67.90;;;;;;4874326;29;20036;-81
2022/02/11 08:37:05;;;;;;;8.40;4.35;;;15.00;65.80;;;;;;4891401;29;20031;-82
2022/02/11 08:39:34;;;;;;;8.07;4.32;;;15.30;62.90;;;;;;4894450;29;20065;-81
2022/02/11 08:42:01;;;;;;;9.35;3.95;;;15.60;61.70;;;;;;4894359;29;20553;-82
2022/02/11 08:44:26;;;;;;;10.57;3.53;;;15.90;59.20;;;;;;4877839;29;20037;-81
2022/02/11 08:46:52;;;;;;;9.00;4.70;;;16.00;58.20;;;;;;4894280;29;20033;-82
2022/02/11 08:49:18;;;;;;;7.28;3.95;;;16.20;57.20;;;;;;4877496;29;20043;-82
2022/02/11 08:51:43;;;;;;;10.52;4.70;;;16.40;56.00;;;;;;4877106;29;20124;-82
2022/02/11 08:54:09;;;;;;;7.38;3.83;;;16.40;55.90;;;;;;4894052;29;20039;-80
2022/02/11 08:56:38;;;;;;;10.00;4.85;;;16.60;55.50;;;;;;4893896;29;20032;-80
2022/02/11 08:59:07;;;;;;;11.38;5.13;;;16.90;54.40;;;;;;4894118;29;20128;-80
2022/02/11 09:01:33;;;;;;;13.43;5.80;;;17.00;54.40;;;;;;4894142;29;20580;-80
2022/02/11 09:03:59;;;;;;;11.13;6.00;;;17.40;52.70;;;;;;4894094;29;20025;-81
2022/02/11 09:06:24;;;;;;;11.55;5.28;;;17.50;51.90;;;;;;4877148;29;20036;-80
2022/02/11 09:08:50;;;;;;;12.70;5.22;;;17.50;51.40;;;;;;4876543;29;20491;-81
2022/02/11 09:11:19;;;;;;;10.23;5.30;;;17.60;51.30;;;;;;4876502;29;20521;-81
2022/02/11 09:13:49;;;;;;;12.45;5.97;;;17.60;51.30;;;;;;4877417;29;20032;-82
2022/02/11 09:16:16;;;;;;;14.23;6.53;;;17.80;51.00;;;;;;4894312;29;20040;-82
2022/02/11 09:18:53;;;;;;;12.02;6.10;;;17.90;49.90;;;;;;4878212;29;20120;-81
2022/02/11 09:21:22;;;;;;;11.50;5.78;;;17.80;49.50;;;;;;4893704;29;20036;-83
2022/02/11 09:23:47;;;;;;;9.35;5.60;;;18.00;48.80;;;;;;4894856;29;20029;-83
2022/02/11 09:26:15;;;;;;;11.50;5.90;;;17.90;47.70;;;;;;4894575;29;20033;-82
2022/02/11 09:28:41;;;;;;;9.55;4.68;;;17.90;48.10;;;;;;4875046;29;20059;-81
2022/02/11 09:31:08;;;;;;;8.57;4.50;;;17.80;47.90;;;;;;4872905;29;20824;-80
2022/02/11 09:33:34;;;;;;;13.57;4.95;;;17.80;47.30;;;;;;4877644;29;20037;-80
2022/02/11 09:36:00;;;;;;;11.75;4.35;;;17.70;47.30;;;;;;4893574;29;20051;-79
2022/02/11 09:38:26;;;;;;;10.15;4.50;;;17.60;47.60;;;;;;4876777;29;20036;-82
2022/02/11 09:40:53;;;;;;;12.13;5.18;;;17.70;47.50;;;;;;4888710;29;20585;-78
2022/02/11 09:43:22;;;;;;;8.93;5.25;;;17.80;47.00;;;;;;4876617;29;20048;-79
2022/02/11 09:45:47;;;;;;;7.50;4.50;;;17.70;46.60;;;;;;4892235;29;20033;-80
2022/02/11 09:48:13;;;;;;;16.85;4.68;;;17.60;46.50;;;;;;4893094;29;20111;-79
2022/02/11 09:50:39;;;;;;;12.88;4.20;;;17.50;47.00;;;;;;4893604;29;20127;-79
2022/02/11 09:53:05;;;;;;;10.57;4.93;;;17.40;47.30;;;;;;4892819;29;20033;-78
2022/02/11 09:55:34;;;;;;;10.98;4.50;;;17.10;47.30;;;;;;4876085;29;20041;-78
2022/02/11 09:57:59;;;;;;;13.05;4.72;;;16.80;47.80;;;;;;4893382;29;20031;-80
2022/02/11 10:00:27;;;;;;;9.60;4.85;;;16.50;49.10;;;;;;4891252;29;20040;-80
2022/02/11 10:02:56;;;;;;;6.82;4.05;;;16.10;49.40;;;;;;4891870;29;20533;-82
2022/02/11 10:05:24;;;;;;;9.05;4.88;;;15.70;50.70;;;;;;4890558;29;20465;-82
2022/02/11 10:07:51;;;;;;;8.98;4.30;;;15.30;51.70;;;;;;4891278;29;20028;-81
2022/02/11 10:13:06;;;;;;;16.70;4.53;;;14.60;52.80;;;;;;4892943;29;20116;-80
2022/02/11 10:15:34;;;;;;;7.53;4.47;;;14.30;53.60;;;;;;4876072;29;20048;-83
2022/02/11 10:18:01;;;;;;;11.02;4.20;;;14.10;54.50;;;;;;4875994;29;20119;-80
2022/02/11 10:20:29;;;;;;;9.70;4.68;;;13.90;55.50;;;;;;4890578;29;20393;-79
2022/02/11 10:23:12;;;;;;;9.77;4.60;;;13.70;56.30;;;;;;4892384;29;20043;-84
2022/02/11 10:25:58;;;;;;;7.80;4.10;;;13.70;56.90;;;;;;4892649;29;20075;-80
2022/02/11 10:28:29;;;;;;;8.68;4.97;;;13.50;58.30;;;;;;4891092;29;20119;-83
2022/02/11 10:31:16;;;;;;;9.55;4.43;;;13.60;59.20;;;;;;4892224;29;20036;-78
2022/02/11 10:34:11;;;;;;;8.35;4.90;;;13.60;59.20;;;;;;4890544;29;20439;-79
2022/02/11 10:36:47;;;;;;;11.10;3.72;;;13.60;59.50;;;;;;4890573;29;20123;-78
2022/02/11 10:39:20;;;;;;;8.30;4.03;;;13.60;58.90;;;;;;4890311;29;20533;-78
2022/02/11 10:41:52;;;;;;;11.88;4.38;;;13.50;59.00;;;;;;4892694;29;20069;-84
2022/02/11 10:44:21;;;;;;;8.77;3.60;;;13.60;59.80;;;;;;4886545;29;20037;-83
2022/02/11 10:46:49;;;;;;;7.95;3.63;;;13.60;60.50;;;;;;4889984;29;20052;-81
2022/02/11 10:49:17;;;;;;;12.13;3.80;;;13.60;60.70;;;;;;4890516;29;20025;-81
2022/02/11 10:51:43;;;;;;;16.35;4.20;;;13.60;61.20;;;;;;4891323;29;20430;-78
2022/02/11 10:54:27;;;;;;;11.30;4.53;;;13.60;62.10;;;;;;4891603;29;20032;-81
2022/02/11 10:56:57;;;;;;;7.72;4.03;;;13.80;61.20;;;;;;4891130;29;20073;-81
2022/02/11 10:59:34;;;;;;;8.57;4.15;;;13.80;61.20;;;;;;4889402;29;20402;-81
2022/02/11 11:02:05;;;;;;;12.70;3.97;;;13.80;60.80;;;;;;4892289;29;20040;-80
2022/02/11 11:04:31;;;;;;;15.27;4.65;;;13.70;60.60;;;;;;4891810;29;20040;-81
2022/02/11 11:06:57;;;;;;;;;;;13.70;61.40;;;;;;4891208;29;20048;-78
2022/02/11 11:09:25;;;;;;;12.73;5.00;;;13.70;62.20;;;;;;4890579;29;19907;-81
2022/02/11 11:11:52;;;;;;;9.98;4.88;;;13.90;61.10;;;;;;4890486;29;20025;-81
2022/02/11 11:14:19;;;;;;;13.45;5.63;;;14.00;60.90;;;;;;4891483;29;20119;-80
2022/02/11 11:16:47;;;;;;;11.35;4.30;;;14.20;60.30;;;;;;4891850;29;20170;-80
2022/02/11 11:19:15;;;;;;;8.68;4.10;;;14.30;59.90;;;;;;4886472;29;20106;-80
2022/02/11 11:22:11;;;;;;;9.55;3.13;;;14.40;58.90;;;;;;4890301;29;20866;-83
2022/02/11 11:24:43;;;;;;;8.02;3.13;;;14.50;58.40;;;;;;4891470;29;20032;-79
2022/02/11 11:27:09;;;;;;;5.70;3.10;;;14.40;57.20;;;;;;4875172;29;20037;-80
2022/02/11 11:29:35;;;;;;;;;;;14.30;57.30;;;;;;4890989;29;20032;-80
2022/02/11 11:32:03;;;;;;;7.10;3.22;;;14.20;57.20;;;;;;4874781;29;19911;-80
2022/02/11 11:34:33;;;;;;;9.50;4.10;;;14.10;57.90;;;;;;4890843;29;20028;-79
2022/02/11 11:37:06;;;;;;;7.30;3.08;;;14.00;57.90;;;;;;4874466;29;20028;-78
2022/02/11 11:39:34;;;;;;;8.35;2.80;;;13.90;57.80;;;;;;4876044;29;20059;-80
2022/02/11 11:42:08;;;;;;;10.07;2.70;;;13.90;57.30;;;;;;4891518;29;20036;-80
2022/02/11 11:44:56;;;;;;;7.15;2.78;;;13.90;57.90;;;;;;4905980;29;20040;-80
2022/02/11 11:47:29;;;;;;;12.82;3.08;;;13.70;59.10;;;;;;4890621;29;20669;-82
2022/02/11 11:49:56;;;;;;;6.57;2.70;;;13.80;60.50;;;;;;4890976;29;20521;-80
2022/02/11 11:52:22;;;;;;;8.70;3.35;;;14.00;61.10;;;;;;4891480;29;20405;-80
2022/02/11 11:55:08;;;;;;;;;;;14.20;59.70;;;;;;4890979;29;20037;-79
2022/02/11 11:57:48;;;;;;;10.00;3.63;;;14.40;58.50;;;;;;4870363;29;20384;-78
2022/02/11 12:00:41;;;;;;;6.53;3.22;;;14.40;57.50;;;;;;4890227;29;20172;-77
2022/02/11 12:03:07;;;;;;;5.03;2.75;;;14.30;57.30;;;;;;4889633;29;20091;-77
2022/02/11 12:05:43;;;;;;;;;;;14.10;57.40;;;;;;4891549;29;20913;-80
2022/02/11 12:08:10;;;;;;;8.18;3.45;;;13.90;58.00;;;;;;4905366;29;19990;-77
2022/02/11 12:10:35;;;;;;;6.93;3.72;;;13.80;59.30;;;;;;4891478;29;20371;-77
2022/02/11 12:13:01;;;;;;;;;;;13.70;59.40;;;;;;4893388;29;20061;-79
2022/02/11 12:15:27;;;;;;;6.22;3.10;;;13.80;58.60;;;;;;4894122;29;19907;-79
2022/02/11 12:17:54;;;;;;;7.90;2.80;;;13.70;58.70;;;;;;4894869;29;20033;-81
2022/02/11 12:20:20;;;;;;;7.30;2.88;;;13.60;59.30;;;;;;4893652;29;20449;-83
2022/02/11 12:27:20;;;;;;;;;;;13.60;58.70;;;;;;4894668;29;20025;-77
2022/02/11 12:28:20;;;;;;;8.35;3.25;;;13.40;59.80;;;;;;4877114;29;20044;-88
2022/02/11 12:30:47;;;;;;;8.00;3.38;;;13.40;60.10;;;;;;4864044;29;20048;-80
2022/02/11 12:33:13;;;;;;;5.75;2.85;;;13.40;60.60;;;;;;4896775;29;20048;-82
2022/02/11 12:35:40;;;;;;;;;;;13.50;58.90;;;;;;4893722;29;20036;-81
2022/02/11 12:38:06;;;;;;;7.65;3.90;;;13.40;59.10;;;;;;4895470;29;19911;-83
2022/02/11 12:40:36;;;;;;;7.38;3.92;;;13.40;59.40;;;;;;4892517;29;20087;-85
2022/02/11 12:43:05;;;;;;;14.65;3.80;;;13.20;59.30;;;;;;4909705;29;20135;-83
2022/02/11 12:45:36;;;;;;;7.47;4.00;;;13.20;60.50;;;;;;4890911;29;20439;-88
2022/02/11 12:48:04;;;;;;;8.57;4.07;;;13.10;60.80;;;;;;4867890;29;20414;-85
2022/02/11 12:50:35;;;;;;;8.30;3.60;;;13.10;60.60;;;;;;4858934;29;20037;-86
2022/02/11 12:53:05;;;;;;;10.73;4.43;;;13.10;60.60;;;;;;4873748;29;20036;-84
2022/02/11 12:55:36;;;;;;;11.43;6.50;;;13.00;61.00;;;;;;4878826;29;20087;-86
2022/02/11 12:58:03;;;;;;;18.27;9.75;;;12.80;62.70;;;;;;4876473;29;20726;-87
2022/02/11 13:00:32;;;;;;;41.65;21.98;;;12.90;63.10;;;;;;4876773;29;20041;-82
2022/02/11 13:03:00;;;;;;;34.28;24.77;;;12.80;64.00;;;;;;4878325;29;20477;-86
2022/02/11 13:05:43;;;;;;;107.05;82.82;;;12.80;64.80;;;;;;4878071;29;20419;-84
2022/02/11 13:08:10;;;;;;;16.20;7.72;;;12.70;65.70;;;;;;4878083;29;20058;-86
2022/02/11 13:10:39;;;;;;;9.90;6.32;;;12.80;66.70;;;;;;4876815;29;20060;-86
2022/02/11 13:13:06;;;;;;;12.00;6.10;;;13.00;65.50;;;;;;4878018;29;20550;-87
2022/02/11 13:15:36;;;;;;;17.80;5.70;;;13.00;65.60;;;;;;4876841;29;20128;-87
2022/02/11 13:18:17;;;;;;;18.35;8.20;;;12.90;66.20;;;;;;4877978;29;20032;-89
2022/02/11 13:20:51;;;;;;;10.98;5.97;;;12.80;66.90;;;;;;4876908;29;20049;-88
2022/02/11 13:23:22;;;;;;;12.30;7.20;;;12.50;69.70;;;;;;4876328;29;20447;-88
2022/02/11 13:25:50;;;;;;;13.30;7.05;;;12.40;71.40;;;;;;4878256;29;20040;-88
2022/02/11 13:28:18;;;;;;;14.88;7.15;;;12.20;73.50;;;;;;4876694;29;20529;-89
2022/02/11 13:30:53;;;;;;;15.10;6.78;;;12.20;74.70;;;;;;4880740;29;20043;-88
2022/02/11 13:33:24;;;;;;;15.60;10.75;;;12.10;76.40;;;;;;4875833;29;20124;-88
2022/02/11 13:35:52;;;;;;;24.33;16.80;;;12.10;77.00;;;;;;4876074;29;20065;-88
2022/02/11 13:38:26;;;;;;;13.52;6.30;;;12.00;78.40;;;;;;4877693;29;20052;-88
2022/02/11 13:40:59;;;;;;;13.52;5.82;;;12.00;78.50;;;;;;4893216;29;20143;-87
2022/02/11 13:43:25;;;;;;;10.38;5.47;;;12.00;77.80;;;;;;4882799;29;20062;-85
2022/02/11 13:45:57;;;;;;;13.32;5.85;;;11.80;79.40;;;;;;4913768;29;20032;-85
2022/02/11 13:48:27;;;;;;;16.13;6.28;;;11.70;80.90;;;;;;4888236;29;20032;-85
2022/02/11 13:51:12;;;;;;;15.02;5.80;;;11.60;83.60;;;;;;4909271;29;20020;-84
2022/02/11 13:53:52;;;;;;;8.98;5.47;;;11.60;84.00;;;;;;4916482;29;20096;-81
2022/02/11 13:56:22;;;;;;;9.85;5.50;;;11.50;85.50;;;;;;4907674;29;20017;-82
2022/02/11 13:59:03;;;;;;;12.38;5.70;;;11.40;86.70;;;;;;4908000;29;20013;-80
2022/02/11 15:33:10;;;;;;;3.90;2.10;;;9.30;99.90;;;;;;5199791;23;19984;-79
2022/02/11 15:35:36;;;;;;;;;;;9.20;99.90;;;;;;4957795;29;20036;-80
2022/02/11 15:38:02;;;;;;;6.10;2.05;;;9.20;99.90;;;;;;4953250;29;19918;-79
2022/02/11 15:40:27;;;;;;;;;;;9.10;99.90;;;;;;4961129;29;20036;-79
2022/02/11 15:42:56;;;;;;;4.60;1.95;;;9.10;99.90;;;;;;4942536;29;19910;-79
2022/02/11 15:45:22;;;;;;;4.28;1.92;;;9.00;99.90;;;;;;4940592;29;20031;-79
2022/02/11 15:47:48;;;;;;;5.63;2.70;;;9.00;99.90;;;;;;4945106;29;20039;-79
2022/02/11 15:50:17;;;;;;;;;;;9.00;99.90;;;;;;4965117;29;20020;-79
2022/02/11 15:52:42;;;;;;;4.40;2.67;;;9.00;99.90;;;;;;4965924;29;19917;-79
2022/02/11 15:55:10;;;;;;;;;;;9.00;99.90;;;;;;4967073;29;20043;-79
2022/02/11 15:57:36;;;;;;;3.83;2.42;;;8.90;99.90;;;;;;4950833;29;19919;-80
2022/02/11 16:33:32;;;;;;;5.05;2.33;;;8.50;99.90;;;;;;5544813;23;20044;-80
2022/02/11 16:35:59;;;;;;;6.07;3.20;;;8.40;99.90;;;;;;4966715;28;20039;-79
2022/02/11 16:38:27;;;;;;;5.50;2.70;;;8.40;99.90;;;;;;4952555;29;20039;-78
2022/02/11 16:40:53;;;;;;;5.95;3.50;;;8.30;99.90;;;;;;4937898;29;20024;-79
2022/02/11 16:43:19;;;;;;;;;;;8.30;99.90;;;;;;4953108;29;20036;-78
2022/02/11 16:45:45;;;;;;;6.43;2.83;;;8.30;99.90;;;;;;4953760;29;19910;-79
2022/02/11 16:48:11;;;;;;;4.57;2.78;;;8.20;99.90;;;;;;4951161;29;20032;-78
2022/02/11 16:50:36;;;;;;;;;;;8.20;99.90;;;;;;4942916;29;20036;-77
2022/02/11 16:53:02;;;;;;;4.93;2.38;;;8.20;99.90;;;;;;4960182;28;19945;-79
2022/02/11 16:55:29;;;;;;;5.10;2.30;;;8.20;99.90;;;;;;4952112;29;20019;-79
2022/02/11 16:57:54;;;;;;;5.18;3.15;;;8.30;99.90;;;;;;4947149;29;20020;-78
2022/02/11 17:00:20;;;;;;;;;;;8.40;99.90;;;;;;4918733;29;20043;-79
2022/02/11 17:02:46;;;;;;;6.63;3.45;;;8.40;99.90;;;;;;4939494;29;19895;-80
2022/02/11 17:05:12;;;;;;;;;;;8.30;99.90;;;;;;4939293;29;20056;-78
2022/02/11 17:07:39;;;;;;;8.13;3.30;;;8.30;99.90;;;;;;4936357;29;19970;-78
2022/02/11 17:10:05;;;;;;;7.70;3.90;;;8.30;99.90;;;;;;4923441;29;20005;-78
2022/02/11 17:12:31;;;;;;;10.05;4.30;;;8.30;99.90;;;;;;4938752;29;20032;-79
2022/02/11 17:14:57;;;;;;;;;;;8.20;99.90;;;;;;4919756;29;20028;-78
2022/02/11 17:17:23;;;;;;;6.57;3.50;;;8.10;99.90;;;;;;4934863;29;19907;-78
2022/02/11 17:19:48;;;;;;;;;;;8.10;99.90;;;;;;4934603;29;20020;-79
2022/02/11 17:22:14;;;;;;;6.55;3.38;;;8.00;99.90;;;;;;4941361;29;19907;-79
2022/02/11 17:24:40;;;;;;;5.88;3.60;;;8.00;99.90;;;;;;4939998;29;20110;-78
2022/02/11 17:27:05;;;;;;;;;;;8.00;99.90;;;;;;4935301;29;20068;-78
2022/02/11 17:29:31;;;;;;;6.32;3.63;;;7.90;99.90;;;;;;4937989;29;19907;-79
2022/02/11 17:31:56;;;;;;;6.60;3.70;;;7.90;99.90;;;;;;4936856;29;20032;-78
2022/02/11 17:34:22;;;;;;;;;;;7.90;99.90;;;;;;4940862;29;20040;-81
2022/02/11 17:36:47;;;;;;;6.85;3.42;;;8.10;99.90;;;;;;4937758;29;19911;-78
2022/02/11 17:39:13;;;;;;;5.88;2.67;;;8.10;99.90;;;;;;4922477;29;20080;-80
2022/02/11 17:41:39;;;;;;;6.60;3.42;;;8.00;99.90;;;;;;4932610;29;20059;-78
2022/02/11 17:44:05;;;;;;;;;;;8.00;99.90;;;;;;4918127;29;20024;-79
2022/02/11 17:46:32;;;;;;;4.95;2.92;;;8.00;99.90;;;;;;4907480;29;19907;-77
2022/02/11 17:48:59;;;;;;;8.05;2.83;;;8.00;99.90;;;;;;4936915;29;20036;-78
2022/02/11 17:51:25;;;;;;;8.23;3.67;;;8.00;99.90;;;;;;4921727;29;20028;-79
2022/02/11 17:53:51;;;;;;;;;;;8.10;99.90;;;;;;4939585;29;20105;-78
2022/02/11 17:56:17;;;;;;;5.03;2.08;;;8.00;99.90;;;;;;4920805;29;19907;-79
2022/02/11 17:58:42;;;;;;;;;;;8.10;99.90;;;;;;4937314;29;20063;-78
2022/02/11 18:01:08;;;;;;;4.43;1.63;;;8.00;99.90;;;;;;4937030;29;19915;-79
2022/02/11 18:03:33;;;;;;;5.97;2.95;;;8.00;99.90;;;;;;4938601;29;20056;-80
2022/02/11 18:05:59;;;;;;;3.55;2.03;;;8.00;99.90;;;;;;4924054;29;20035;-79
2022/02/11 18:08:25;;;;;;;6.18;2.90;;;8.10;99.90;;;;;;4942458;29;20032;-79
2022/02/11 18:10:54;;;;;;;;;;;8.00;99.90;;;;;;4925675;29;20020;-78
2022/02/11 18:13:21;;;;;;;7.85;2.03;;;8.00;99.90;;;;;;4942200;29;20001;-80
2022/02/11 18:15:47;;;;;;;3.15;1.42;;;7.90;99.90;;;;;;4941238;29;20039;-78
2022/02/11 18:18:13;;;;;;;5.38;2.10;;;7.90;98.70;;;;;;4924746;29;20027;-79
2022/02/11 18:20:39;;;;;;;2.58;1.60;;;7.80;98.70;;;;;;4939982;29;20012;-79
2022/02/11 18:23:05;;;;;;;;;;;7.70;95.80;;;;;;4923210;29;20059;-79
2022/02/11 18:25:31;;;;;;;2.05;0.98;;;7.70;96.00;;;;;;4922135;29;19961;-79
2022/02/11 18:28:01;;;;;;;4.20;0.70;;;7.70;94.20;;;;;;4941489;29;20031;-78
2022/02/11 18:30:27;;;;;;;2.67;1.05;;;7.70;93.00;;;;;;4925353;29;20048;-78
2022/02/11 18:32:53;;;;;;;2.33;0.75;;;7.60;92.50;;;;;;4941011;29;20017;-78
2022/02/11 18:35:19;;;;;;;1.08;0.57;;;7.60;90.60;;;;;;4923549;29;20071;-78
2022/02/11 18:37:45;;;;;;;2.80;0.90;;;7.50;90.60;;;;;;4940901;29;20047;-78
2022/02/11 18:40:11;;;;;;;;;;;7.50;91.90;;;;;;4925522;29;20052;-79
2022/02/11 18:42:37;;;;;;;3.75;1.45;;;7.30;91.90;;;;;;4940508;29;19903;-79
